sensor_id;sensor_type;location;lat;lon;timestamp;P1;P2;P0
73825;PMS5003;64145;55.060;73.168;2023-03-01T07:07:10;16.75;15.25;9.25
73825;PMS5003;64145;55.060;73.168;2023-03-01T07:09:36;14.00;13.00;5.00
73825;PMS5003;64145;55.060;73.168;2023-03-01T07:12:02;14.00;13.67;5.00
73825;PMS5003;64145;55.060;73.168;2023-03-01T07:14:27;18.00;15.00;6.00
73825;PMS5003;64145;55.060;73.168;2023-03-01T07:16:53;16.67;16.00;7.33
73825;PMS5003;64145;55.060;73.168;2023-03-01T07:19:24;18.00;17.25;8.25
73825;PMS5003;64145;55.060;73.168;2023-03-01T07:21:49;17.00;17.00;8.00
73825;PMS5003;64145;55.060;73.168;2023-03-01T07:24:15;17.00;16.33;6.00
73825;PMS5003;64145;55.060;73.168;2023-03-01T07:26:40;16.00;15.00;6.00
73825;PMS5003;64145;55.060;73.168;2023-03-01T07:29:10;17.25;15.50;7.75
73825;PMS5003;64145;55.060;73.168;2023-03-01T07:31:41;19.50;17.50;9.25
73825;PMS5003;64145;55.060;73.168;2023-03-01T07:34:13;19.00;17.00;10.00
73825;PMS5003;64145;55.060;73.168;2023-03-01T07:36:38;19.33;19.00;9.33
73825;PMS5003;64145;55.060;73.168;2023-03-01T07:39:04;19.25;19.00;8.50
73825;PMS5003;64145;55.060;73.168;2023-03-01T07:41:40;17.50;16.50;9.75
73825;PMS5003;64145;55.060;73.168;2023-03-01T07:44:05;20.00;18.00;8.67
73825;PMS5003;64145;55.060;73.168;2023-03-01T07:46:31;19.00;16.00;9.00
73825;PMS5003;64145;55.060;73.168;2023-03-01T07:48:58;17.50;16.00;7.00
73825;PMS5003;64145;55.060;73.168;2023-03-01T07:51:33;17.50;17.50;9.00
73825;PMS5003;64145;55.060;73.168;2023-03-01T07:53:59;18.00;18.00;8.00
73825;PMS5003;64145;55.060;73.168;2023-03-01T07:56:24;17.00;16.67;8.00
73825;PMS5003;64145;55.060;73.168;2023-03-01T07:58:53;18.00;16.00;7.50
73825;PMS5003;64145;55.060;73.168;2023-03-01T08:01:23;18.50;16.00;7.00
73825;PMS5003;64145;55.060;73.168;2023-03-01T08:03:59;15.00;14.50;6.75
73825;PMS5003;64145;55.060;73.168;2023-03-01T08:06:28;16.25;14.75;6.00
73825;PMS5003;64145;55.060;73.168;2023-03-01T08:08:53;15.33;15.00;7.33
73825;PMS5003;64145;55.060;73.168;2023-03-01T08:11:26;19.50;18.00;7.25
73825;PMS5003;64145;55.060;73.168;2023-03-01T08:13:53;14.50;14.25;5.50
73825;PMS5003;64145;55.060;73.168;2023-03-01T08:16:24;16.00;15.00;6.00
73825;PMS5003;64145;55.060;73.168;2023-03-01T08:18:50;19.33;17.00;8.00
73825;PMS5003;64145;55.060;73.168;2023-03-01T08:21:16;16.00;14.00;7.00
73825;PMS5003;64145;55.060;73.168;2023-03-01T08:23:52;14.00;13.00;5.75
73825;PMS5003;64145;55.060;73.168;2023-03-01T08:26:19;13.00;13.00;6.00
73825;PMS5003;64145;55.060;73.168;2023-03-01T08:28:45;14.50;14.50;6.00
73825;PMS5003;64145;55.060;73.168;2023-03-01T08:31:15;12.25;12.25;4.50
73825;PMS5003;64145;55.060;73.168;2023-03-01T08:33:41;11.25;11.25;5.00
73825;PMS5003;64145;55.060;73.168;2023-03-01T08:36:15;11.00;10.00;5.00
73825;PMS5003;64145;55.060;73.168;2023-03-01T08:38:46;14.00;12.50;4.50
73825;PMS5003;64145;55.060;73.168;2023-03-01T08:41:11;11.00;10.00;5.00
73825;PMS5003;64145;55.060;73.168;2023-03-01T08:43:37;10.00;9.33;4.33
73825;PMS5003;64145;55.060;73.168;2023-03-01T08:46:02;11.00;8.00;4.33
73825;PMS5003;64145;55.060;73.168;2023-03-01T08:48:28;11.00;9.00;4.00
73825;PMS5003;64145;55.060;73.168;2023-03-01T08:53:34;9.00;8.00;4.50
73825;PMS5003;64145;55.060;73.168;2023-03-01T08:56:00;6.33;5.00;3.00
73825;PMS5003;64145;55.060;73.168;2023-03-01T08:58:28;6.00;6.00;2.00
73825;PMS5003;64145;55.060;73.168;2023-03-01T09:00:53;8.75;6.25;4.00
73825;PMS5003;64145;55.060;73.168;2023-03-01T09:03:29;9.50;7.00;4.00
73825;PMS5003;64145;55.060;73.168;2023-03-01T09:06:00;14.50;13.00;7.25
73825;PMS5003;64145;55.060;73.168;2023-03-01T09:08:26;15.25;14.25;5.00
73825;PMS5003;64145;55.060;73.168;2023-03-01T09:11:02;9.75;9.00;3.00
73825;PMS5003;64145;55.060;73.168;2023-03-01T09:13:33;10.00;7.50;3.50
73825;PMS5003;64145;55.060;73.168;2023-03-01T09:15:59;7.00;5.00;2.00
73825;PMS5003;64145;55.060;73.168;2023-03-01T09:18:25;6.00;5.00;2.00
73825;PMS5003;64145;55.060;73.168;2023-03-01T09:20:51;6.00;6.00;3.00
73825;PMS5003;64145;55.060;73.168;2023-03-01T09:23:16;7.00;6.00;2.00
73825;PMS5003;64145;55.060;73.168;2023-03-01T09:25:48;6.50;6.50;2.75
73825;PMS5003;64145;55.060;73.168;2023-03-01T09:28:13;5.00;5.00;2.33
73825;PMS5003;64145;55.060;73.168;2023-03-01T09:30:43;6.00;6.00;4.00
73825;PMS5003;64145;55.060;73.168;2023-03-01T09:33:08;8.00;8.00;5.00
73825;PMS5003;64145;55.060;73.168;2023-03-01T09:35:39;8.25;8.25;4.25
73825;PMS5003;64145;55.060;73.168;2023-03-01T09:38:15;7.00;6.00;2.00
73825;PMS5003;64145;55.060;73.168;2023-03-01T09:40:44;9.33;9.33;5.00
73825;PMS5003;64145;55.060;73.168;2023-03-01T09:43:36;12.00;10.00;4.00
73825;PMS5003;64145;55.060;73.168;2023-03-01T09:46:06;10.00;8.00;3.50
73825;PMS5003;64145;55.060;73.168;2023-03-01T09:48:37;12.00;9.75;5.00
73825;PMS5003;64145;55.060;73.168;2023-03-01T09:51:07;8.25;8.00;4.00
73825;PMS5003;64145;55.060;73.168;2023-03-01T09:53:47;7.25;7.00;4.00
73825;PMS5003;64145;55.060;73.168;2023-03-01T10:01:30;9.50;9.00;4.00
73825;PMS5003;64145;55.060;73.168;2023-03-01T10:09:38;10.00;8.25;4.50
73825;PMS5003;64145;55.060;73.168;2023-03-01T10:12:14;8.00;7.00;4.00
73825;PMS5003;64145;55.060;73.168;2023-03-01T10:14:45;6.00;5.50;2.75
73825;PMS5003;64145;55.060;73.168;2023-03-01T10:22:45;10.00;9.50;4.50
73825;PMS5003;64145;55.060;73.168;2023-03-01T10:25:15;11.00;9.00;5.00
73825;PMS5003;64145;55.060;73.168;2023-03-01T10:27:53;10.00;9.00;5.00
73825;PMS5003;64145;55.060;73.168;2023-03-01T10:32:54;14.00;11.00;5.00
73825;PMS5003;64145;55.060;73.168;2023-03-01T10:35:20;10.67;9.00;4.00
73825;PMS5003;64145;55.060;73.168;2023-03-01T10:37:57;9.00;9.00;4.00
73825;PMS5003;64145;55.060;73.168;2023-03-01T10:40:23;12.25;12.25;4.50
73825;PMS5003;64145;55.060;73.168;2023-03-01T10:42:48;14.00;13.33;5.00
73825;PMS5003;64145;55.060;73.168;2023-03-01T10:45:30;14.00;11.00;4.50
73825;PMS5003;64145;55.060;73.168;2023-03-01T10:48:06;13.00;11.00;5.00
73825;PMS5003;64145;55.060;73.168;2023-03-01T10:50:42;13.25;11.25;5.00
73825;PMS5003;64145;55.060;73.168;2023-03-01T10:53:16;14.00;12.25;5.00
73825;PMS5003;64145;55.060;73.168;2023-03-01T10:55:45;14.00;12.00;5.00
73825;PMS5003;64145;55.060;73.168;2023-03-01T10:58:21;14.00;11.00;4.00
73825;PMS5003;64145;55.060;73.168;2023-03-01T11:00:53;14.00;9.00;5.00
73825;PMS5003;64145;55.060;73.168;2023-03-01T11:03:20;12.75;9.00;4.00
73825;PMS5003;64145;55.060;73.168;2023-03-01T11:05:58;13.25;12.50;5.50
73825;PMS5003;64145;55.060;73.168;2023-03-01T11:08:37;15.00;13.00;5.50
73825;PMS5003;64145;55.060;73.168;2023-03-01T11:19:25;13.00;10.50;5.25
73825;PMS5003;64145;55.060;73.168;2023-03-01T11:24:54;17.00;13.00;5.00
73825;PMS5003;64145;55.060;73.168;2023-03-01T11:27:20;14.00;13.00;4.75
73825;PMS5003;64145;55.060;73.168;2023-03-01T11:30:13;15.25;13.00;6.00
73825;PMS5003;64145;55.060;73.168;2023-03-01T11:32:53;15.00;13.00;7.00
73825;PMS5003;64145;55.060;73.168;2023-03-01T11:35:32;17.00;14.00;5.75
73825;PMS5003;64145;55.060;73.168;2023-03-01T11:43:49;16.00;15.00;4.50
73825;PMS5003;64145;55.060;73.168;2023-03-01T11:48:53;16.00;13.00;4.75
73825;PMS5003;64145;55.060;73.168;2023-03-01T11:56:54;15.00;12.50;5.00
73825;PMS5003;64145;55.060;73.168;2023-03-01T12:07:22;16.50;14.00;7.00
73825;PMS5003;64145;55.060;73.168;2023-03-01T12:12:56;17.00;16.00;8.00
73825;PMS5003;64145;55.060;73.168;2023-03-01T12:18:44;18.00;17.00;6.25
73825;PMS5003;64145;55.060;73.168;2023-03-01T12:23:39;15.00;14.00;6.00
73825;PMS5003;64145;55.060;73.168;2023-03-01T12:26:13;16.50;15.00;5.00
73825;PMS5003;64145;55.060;73.168;2023-03-01T12:28:49;17.50;14.75;6.75
73825;PMS5003;64145;55.060;73.168;2023-03-01T12:31:33;16.00;15.25;6.00
73825;PMS5003;64145;55.060;73.168;2023-03-01T12:36:52;14.00;14.00;5.75
73825;PMS5003;64145;55.060;73.168;2023-03-01T12:42:10;17.00;16.33;6.00
73825;PMS5003;64145;55.060;73.168;2023-03-01T12:49:41;17.50;17.25;8.50
73825;PMS5003;64145;55.060;73.168;2023-03-01T12:52:15;17.00;16.00;8.00
73825;PMS5003;64145;55.060;73.168;2023-03-01T12:54:41;16.00;13.00;4.50
73825;PMS5003;64145;55.060;73.168;2023-03-01T13:02:57;25.50;21.75;13.00
73825;PMS5003;64145;55.060;73.168;2023-03-01T13:05:39;29.50;25.50;16.00
73825;PMS5003;64145;55.060;73.168;2023-03-01T13:08:19;21.50;19.00;12.25
73825;PMS5003;64145;55.060;73.168;2023-03-01T13:11:00;22.50;18.25;11.00
73825;PMS5003;64145;55.060;73.168;2023-03-01T13:13:27;23.00;20.00;11.00
73825;PMS5003;64145;55.060;73.168;2023-03-01T13:15:53;20.75;18.00;9.75
73825;PMS5003;64145;55.060;73.168;2023-03-01T13:20:46;17.00;17.00;9.00
73825;PMS5003;64145;55.060;73.168;2023-03-01T13:31:01;17.00;17.00;8.33
73825;PMS5003;64145;55.060;73.168;2023-03-01T13:35:56;17.00;17.00;7.00
73825;PMS5003;64145;55.060;73.168;2023-03-01T13:41:09;14.00;12.50;5.00
73825;PMS5003;64145;55.060;73.168;2023-03-01T13:43:35;15.00;13.00;6.00
73825;PMS5003;64145;55.060;73.168;2023-03-01T13:46:11;17.50;14.25;6.00
73825;PMS5003;64145;55.060;73.168;2023-03-01T13:48:45;16.00;15.00;6.00
73825;PMS5003;64145;55.060;73.168;2023-03-01T13:51:20;15.00;14.00;5.00
73825;PMS5003;64145;55.060;73.168;2023-03-01T13:53:51;16.00;15.00;7.00
73825;PMS5003;64145;55.060;73.168;2023-03-01T13:56:33;15.00;13.50;6.00
73825;PMS5003;64145;55.060;73.168;2023-03-01T13:59:05;16.00;13.00;7.00
73825;PMS5003;64145;55.060;73.168;2023-03-01T14:01:42;15.00;12.50;7.00
73825;PMS5003;64145;55.060;73.168;2023-03-01T14:04:19;14.00;12.33;5.33
73825;PMS5003;64145;55.060;73.168;2023-03-01T14:06:50;15.00;13.00;6.00
73825;PMS5003;64145;55.060;73.168;2023-03-01T14:09:17;14.00;13.00;4.00
73825;PMS5003;64145;55.060;73.168;2023-03-01T14:11:56;15.00;13.00;5.00
73825;PMS5003;64145;55.060;73.168;2023-03-01T14:14:39;16.00;12.25;5.75
73825;PMS5003;64145;55.060;73.168;2023-03-01T14:20:07;16.00;14.00;6.00
73825;PMS5003;64145;55.060;73.168;2023-03-01T14:22:35;14.25;14.25;5.00
73825;PMS5003;64145;55.060;73.168;2023-03-01T14:28:14;15.00;13.00;7.25
73825;PMS5003;64145;55.060;73.168;2023-03-01T14:30:43;16.00;15.00;7.00
73825;PMS5003;64145;55.060;73.168;2023-03-01T14:33:43;18.75;17.50;8.50
73825;PMS5003;64145;55.060;73.168;2023-03-01T14:36:06;19.50;17.50;8.50
73825;PMS5003;64145;55.060;73.168;2023-03-01T14:38:39;17.00;16.00;7.75
73825;PMS5003;64145;55.060;73.168;2023-03-01T14:41:06;17.50;17.00;7.00
73825;PMS5003;64145;55.060;73.168;2023-03-01T14:43:33;17.50;16.00;6.50
73825;PMS5003;64145;55.060;73.168;2023-03-01T14:45:59;16.00;14.00;5.50
73825;PMS5003;64145;55.060;73.168;2023-03-01T14:48:24;15.00;13.00;4.00
73825;PMS5003;64145;55.060;73.168;2023-03-01T14:51:01;18.00;15.50;6.00
73825;PMS5003;64145;55.060;73.168;2023-03-01T14:53:30;16.25;15.00;7.00
73825;PMS5003;64145;55.060;73.168;2023-03-01T14:56:01;17.00;16.00;7.00
73825;PMS5003;64145;55.060;73.168;2023-03-01T14:58:34;15.00;14.00;6.00
73825;PMS5003;64145;55.060;73.168;2023-03-01T15:01:12;16.00;14.50;5.00
73825;PMS5003;64145;55.060;73.168;2023-03-01T15:03:49;14.25;13.25;5.00
73825;PMS5003;64145;55.060;73.168;2023-03-01T15:06:19;15.00;14.00;7.00
73825;PMS5003;64145;55.060;73.168;2023-03-01T15:08:50;15.00;15.00;7.00
73825;PMS5003;64145;55.060;73.168;2023-03-01T15:11:18;12.00;11.50;3.75
73825;PMS5003;64145;55.060;73.168;2023-03-01T15:13:47;11.00;10.00;4.00
73825;PMS5003;64145;55.060;73.168;2023-03-01T15:16:14;13.50;12.00;6.00
73825;PMS5003;64145;55.060;73.168;2023-03-01T15:18:45;13.50;11.25;4.00
73825;PMS5003;64145;55.060;73.168;2023-03-01T15:21:16;13.50;12.00;5.75
73825;PMS5003;64145;55.060;73.168;2023-03-01T15:23:41;16.00;13.00;5.00
73825;PMS5003;64145;55.060;73.168;2023-03-01T15:26:20;15.50;13.50;4.50
73825;PMS5003;64145;55.060;73.168;2023-03-01T15:28:52;17.00;15.00;5.00
73825;PMS5003;64145;55.060;73.168;2023-03-01T15:31:30;16.25;14.00;6.00
73825;PMS5003;64145;55.060;73.168;2023-03-01T15:39:25;14.50;13.50;6.00
73825;PMS5003;64145;55.060;73.168;2023-03-01T15:41:52;17.25;14.00;6.25
73825;PMS5003;64145;55.060;73.168;2023-03-01T15:44:25;15.00;13.33;5.00
73825;PMS5003;64145;55.060;73.168;2023-03-01T15:46:51;13.25;13.00;5.75
73825;PMS5003;64145;55.060;73.168;2023-03-01T15:49:35;13.33;12.00;5.67
73825;PMS5003;64145;55.060;73.168;2023-03-01T15:52:03;15.00;12.00;5.75
73825;PMS5003;64145;55.060;73.168;2023-03-01T15:54:29;16.00;14.00;6.00
73825;PMS5003;64145;55.060;73.168;2023-03-01T15:56:55;15.00;13.00;5.67
73825;PMS5003;64145;55.060;73.168;2023-03-01T15:59:20;13.00;12.75;5.50
73825;PMS5003;64145;55.060;73.168;2023-03-01T16:01:47;13.00;13.00;5.00
73825;PMS5003;64145;55.060;73.168;2023-03-01T16:04:23;14.00;12.00;5.00
73825;PMS5003;64145;55.060;73.168;2023-03-01T16:06:50;14.33;13.00;4.00
73825;PMS5003;64145;55.060;73.168;2023-03-01T16:09:23;13.00;9.25;4.00
73825;PMS5003;64145;55.060;73.168;2023-03-01T16:11:49;15.00;13.00;6.50
73825;PMS5003;64145;55.060;73.168;2023-03-01T16:14:15;15.00;13.00;5.00
73825;PMS5003;64145;55.060;73.168;2023-03-01T16:16:41;14.00;13.00;6.00
73825;PMS5003;64145;55.060;73.168;2023-03-01T16:19:08;14.00;13.50;5.00
73825;PMS5003;64145;55.060;73.168;2023-03-01T16:21:33;13.00;12.00;4.00
73825;PMS5003;64145;55.060;73.168;2023-03-01T16:24:01;14.00;13.00;6.00
73825;PMS5003;64145;55.060;73.168;2023-03-01T16:26:27;15.33;13.00;6.00
73825;PMS5003;64145;55.060;73.168;2023-03-01T16:28:56;17.33;14.00;7.00
73825;PMS5003;64145;55.060;73.168;2023-03-01T16:31:22;14.75;14.00;5.00
73825;PMS5003;64145;55.060;73.168;2023-03-01T16:33:54;16.00;13.00;6.00
73825;PMS5003;64145;55.060;73.168;2023-03-01T16:36:30;16.00;13.00;5.00
73825;PMS5003;64145;55.060;73.168;2023-03-01T16:38:57;17.33;15.00;8.00
73825;PMS5003;64145;55.060;73.168;2023-03-01T16:41:28;17.50;15.00;5.75
73825;PMS5003;64145;55.060;73.168;2023-03-01T16:44:04;17.00;13.50;6.00
73825;PMS5003;64145;55.060;73.168;2023-03-01T16:46:29;15.00;13.00;5.00
73825;PMS5003;64145;55.060;73.168;2023-03-01T16:49:01;15.25;14.75;6.00
73825;PMS5003;64145;55.060;73.168;2023-03-01T16:51:28;17.25;14.00;6.00
73825;PMS5003;64145;55.060;73.168;2023-03-01T16:54:00;14.50;14.00;6.00
73825;PMS5003;64145;55.060;73.168;2023-03-01T16:56:35;15.00;14.00;5.00
73825;PMS5003;64145;55.060;73.168;2023-03-01T16:59:06;15.00;13.50;6.00
73825;PMS5003;64145;55.060;73.168;2023-03-01T17:01:32;17.75;14.25;7.00
73825;PMS5003;64145;55.060;73.168;2023-03-01T17:04:06;17.00;14.00;6.00
73825;PMS5003;64145;55.060;73.168;2023-03-01T17:06:42;16.25;15.25;6.00
73825;PMS5003;64145;55.060;73.168;2023-03-01T17:09:07;18.67;16.00;8.00
73825;PMS5003;64145;55.060;73.168;2023-03-01T17:11:35;15.25;14.25;6.00
73825;PMS5003;64145;55.060;73.168;2023-03-01T17:14:00;15.75;15.00;6.00
73825;PMS5003;64145;55.060;73.168;2023-03-01T17:16:36;16.00;13.00;5.00
73825;PMS5003;64145;55.060;73.168;2023-03-01T17:19:02;14.50;13.00;4.25
73825;PMS5003;64145;55.060;73.168;2023-03-01T17:21:27;14.00;12.67;6.00
73825;PMS5003;64145;55.060;73.168;2023-03-01T17:23:56;18.33;14.00;6.67
73825;PMS5003;64145;55.060;73.168;2023-03-01T17:26:27;14.00;13.00;4.00
73825;PMS5003;64145;55.060;73.168;2023-03-01T17:28:56;16.50;13.00;4.25
73825;PMS5003;64145;55.060;73.168;2023-03-01T17:31:33;17.50;16.00;7.00
73825;PMS5003;64145;55.060;73.168;2023-03-01T17:34:00;18.75;16.75;6.00
73825;PMS5003;64145;55.060;73.168;2023-03-01T17:36:26;16.00;15.00;5.00
73825;PMS5003;64145;55.060;73.168;2023-03-01T17:38:52;14.00;13.33;5.00
73825;PMS5003;64145;55.060;73.168;2023-03-01T17:41:18;14.00;12.67;4.67
73825;PMS5003;64145;55.060;73.168;2023-03-01T17:43:44;14.50;13.00;5.00
73825;PMS5003;64145;55.060;73.168;2023-03-01T17:46:10;14.00;13.00;5.00
73825;PMS5003;64145;55.060;73.168;2023-03-01T17:48:41;14.00;13.25;5.00
73825;PMS5003;64145;55.060;73.168;2023-03-01T17:51:07;13.33;13.33;4.00
73825;PMS5003;64145;55.060;73.168;2023-03-01T17:53:34;14.75;13.00;4.00
73825;PMS5003;64145;55.060;73.168;2023-03-01T17:56:00;14.00;13.00;5.00
73825;PMS5003;64145;55.060;73.168;2023-03-01T17:58:37;13.50;12.00;5.00
73825;PMS5003;64145;55.060;73.168;2023-03-01T18:01:13;15.00;11.25;5.75
73825;PMS5003;64145;55.060;73.168;2023-03-01T18:03:49;13.00;10.25;4.00
73825;PMS5003;64145;55.060;73.168;2023-03-01T18:06:17;10.00;9.00;5.75
73825;PMS5003;64145;55.060;73.168;2023-03-01T18:08:48;7.75;7.00;3.00
73825;PMS5003;64145;55.060;73.168;2023-03-01T18:11:24;10.25;9.25;4.50
73825;PMS5003;64145;55.060;73.168;2023-03-01T18:13:53;10.50;8.25;4.00
73825;PMS5003;64145;55.060;73.168;2023-03-01T18:16:24;12.75;9.00;4.00
73825;PMS5003;64145;55.060;73.168;2023-03-01T18:18:53;13.33;9.00;4.00
73825;PMS5003;64145;55.060;73.168;2023-03-01T18:21:29;10.75;8.00;4.00
73825;PMS5003;64145;55.060;73.168;2023-03-01T18:23:54;7.33;5.67;2.33
73825;PMS5003;64145;55.060;73.168;2023-03-01T18:26:20;8.00;7.00;3.00
73825;PMS5003;64145;55.060;73.168;2023-03-01T18:28:47;11.25;9.00;4.00
73825;PMS5003;64145;55.060;73.168;2023-03-01T18:31:13;12.00;9.00;4.00
73825;PMS5003;64145;55.060;73.168;2023-03-01T18:33:42;12.75;9.00;4.00
73825;PMS5003;64145;55.060;73.168;2023-03-01T18:36:33;11.75;7.00;3.00
73825;PMS5003;64145;55.060;73.168;2023-03-01T18:39:00;8.50;6.50;3.00
73825;PMS5003;64145;55.060;73.168;2023-03-01T18:41:30;9.75;9.75;4.00
73825;PMS5003;64145;55.060;73.168;2023-03-01T18:44:07;11.00;10.00;4.00
73825;PMS5003;64145;55.060;73.168;2023-03-01T18:46:32;8.33;8.00;4.00
73825;PMS5003;64145;55.060;73.168;2023-03-01T18:49:01;8.00;7.00;3.75
73825;PMS5003;64145;55.060;73.168;2023-03-01T18:51:28;8.00;6.75;4.00
73825;PMS5003;64145;55.060;73.168;2023-03-01T18:53:59;7.25;7.00;4.00
73825;PMS5003;64145;55.060;73.168;2023-03-01T18:56:35;8.00;6.00;4.00
73825;PMS5003;64145;55.060;73.168;2023-03-01T18:59:01;8.00;7.00;4.00
73825;PMS5003;64145;55.060;73.168;2023-03-01T19:01:33;6.50;6.00;4.00
73825;PMS5003;64145;55.060;73.168;2023-03-01T19:03:59;8.33;6.67;4.00
73825;PMS5003;64145;55.060;73.168;2023-03-01T19:06:29;6.25;5.00;2.00
73825;PMS5003;64145;55.060;73.168;2023-03-01T19:09:06;7.75;6.75;4.00
73825;PMS5003;64145;55.060;73.168;2023-03-01T19:11:32;7.00;7.00;4.00
73825;PMS5003;64145;55.060;73.168;2023-03-01T19:14:04;5.50;5.50;3.00
73825;PMS5003;64145;55.060;73.168;2023-03-01T19:16:30;5.00;5.00;1.00
73825;PMS5003;64145;55.060;73.168;2023-03-01T19:18:57;8.00;6.00;2.00
73825;PMS5003;64145;55.060;73.168;2023-03-01T19:21:29;6.00;6.00;2.00
73825;PMS5003;64145;55.060;73.168;2023-03-01T19:24:00;6.00;5.00;2.00
73825;PMS5003;64145;55.060;73.168;2023-03-01T19:26:29;3.25;3.25;1.00
73825;PMS5003;64145;55.060;73.168;2023-03-01T19:29:00;5.00;4.25;1.00
73825;PMS5003;64145;55.060;73.168;2023-03-01T19:31:32;5.00;5.00;2.25
73825;PMS5003;64145;55.060;73.168;2023-03-01T19:34:08;6.00;5.00;3.00
73825;PMS5003;64145;55.060;73.168;2023-03-01T19:36:34;4.00;4.00;2.33
73825;PMS5003;64145;55.060;73.168;2023-03-01T19:38:59;4.00;4.00;1.00
73825;PMS5003;64145;55.060;73.168;2023-03-01T19:41:25;4.00;4.00;1.00
73825;PMS5003;64145;55.060;73.168;2023-03-01T19:43:51;4.00;4.00;2.00
73825;PMS5003;64145;55.060;73.168;2023-03-01T19:46:18;4.00;4.00;2.00
73825;PMS5003;64145;55.060;73.168;2023-03-01T19:48:50;6.00;5.50;2.00
73825;PMS5003;64145;55.060;73.168;2023-03-01T19:51:26;4.50;4.00;1.75
73825;PMS5003;64145;55.060;73.168;2023-03-01T19:53:52;4.00;4.00;1.00
73825;PMS5003;64145;55.060;73.168;2023-03-01T19:56:17;4.00;4.00;1.00
73825;PMS5003;64145;55.060;73.168;2023-03-01T19:58:43;4.33;4.00;2.00
73825;PMS5003;64145;55.060;73.168;2023-03-01T20:01:17;4.00;4.00;0.00
73825;PMS5003;64145;55.060;73.168;2023-03-01T20:03:43;4.00;4.00;1.00
73825;PMS5003;64145;55.060;73.168;2023-03-01T20:06:14;7.25;6.25;2.00
73825;PMS5003;64145;55.060;73.168;2023-03-01T20:08:48;6.00;5.00;1.00
73825;PMS5003;64145;55.060;73.168;2023-03-01T20:11:14;5.00;5.00;2.00
73825;PMS5003;64145;55.060;73.168;2023-03-01T20:13:40;4.00;4.00;2.00
73825;PMS5003;64145;55.060;73.168;2023-03-01T20:16:06;4.00;4.00;0.00
73825;PMS5003;64145;55.060;73.168;2023-03-01T20:18:31;6.00;4.00;1.00
73825;PMS5003;64145;55.060;73.168;2023-03-01T20:20:57;4.00;3.67;1.33
73825;PMS5003;64145;55.060;73.168;2023-03-01T20:23:34;7.00;6.00;2.00
73825;PMS5003;64145;55.060;73.168;2023-03-01T20:26:05;4.00;4.00;1.00
73825;PMS5003;64145;55.060;73.168;2023-03-01T20:28:32;5.00;5.00;2.00
73825;PMS5003;64145;55.060;73.168;2023-03-01T20:31:02;5.00;5.00;3.00
73825;PMS5003;64145;55.060;73.168;2023-03-01T20:33:33;5.25;5.25;4.00
73825;PMS5003;64145;55.060;73.168;2023-03-01T20:36:08;4.00;4.00;2.00
73825;PMS5003;64145;55.060;73.168;2023-03-01T20:38:39;5.75;5.00;2.00
73825;PMS5003;64145;55.060;73.168;2023-03-01T20:41:12;8.00;5.50;3.75
73825;PMS5003;64145;55.060;73.168;2023-03-01T20:43:39;9.50;8.00;4.00
73825;PMS5003;64145;55.060;73.168;2023-03-01T20:46:09;8.25;5.75;3.75
73825;PMS5003;64145;55.060;73.168;2023-03-01T20:48:39;6.75;4.75;2.50
73825;PMS5003;64145;55.060;73.168;2023-03-01T20:51:07;8.50;7.00;2.00
73825;PMS5003;64145;55.060;73.168;2023-03-01T20:53:33;5.00;4.50;2.00
73825;PMS5003;64145;55.060;73.168;2023-03-01T20:56:10;7.00;7.00;4.00
73825;PMS5003;64145;55.060;73.168;2023-03-01T20:58:36;8.00;6.50;4.00
73825;PMS5003;64145;55.060;73.168;2023-03-01T21:01:08;6.00;4.00;2.00
73825;PMS5003;64145;55.060;73.168;2023-03-01T21:03:34;7.75;6.25;3.50
73825;PMS5003;64145;55.060;73.168;2023-03-01T21:06:00;9.00;7.00;2.50
73825;PMS5003;64145;55.060;73.168;2023-03-01T21:08:36;8.00;5.50;2.00
73825;PMS5003;64145;55.060;73.168;2023-03-01T21:11:02;8.00;4.00;2.00
73825;PMS5003;64145;55.060;73.168;2023-03-01T21:13:38;7.75;7.75;3.00
73825;PMS5003;64145;55.060;73.168;2023-03-01T21:16:05;6.00;5.67;2.00
73825;PMS5003;64145;55.060;73.168;2023-03-01T21:18:44;6.00;6.00;3.25
73825;PMS5003;64145;55.060;73.168;2023-03-01T21:21:11;4.33;4.00;1.67
73825;PMS5003;64145;55.060;73.168;2023-03-01T21:23:38;5.75;5.00;3.00
73825;PMS5003;64145;55.060;73.168;2023-03-01T21:28:35;5.00;4.00;3.00
73825;PMS5003;64145;55.060;73.168;2023-03-01T21:31:08;4.00;4.00;2.50
73825;PMS5003;64145;55.060;73.168;2023-03-01T21:33:39;4.00;4.00;2.00
73825;PMS5003;64145;55.060;73.168;2023-03-01T21:36:12;3.25;3.25;1.00
73825;PMS5003;64145;55.060;73.168;2023-03-01T21:38:38;6.00;5.00;1.00
73825;PMS5003;64145;55.060;73.168;2023-03-01T21:41:10;4.00;2.00;0.00
73825;PMS5003;64145;55.060;73.168;2023-03-01T21:43:45;3.00;3.00;0.00
73825;PMS5003;64145;55.060;73.168;2023-03-01T21:46:20;3.00;1.75;0.00
73825;PMS5003;64145;55.060;73.168;2023-03-01T21:48:56;3.00;2.00;0.00
73825;PMS5003;64145;55.060;73.168;2023-03-01T21:51:23;2.75;2.75;0.00
73825;PMS5003;64145;55.060;73.168;2023-03-01T21:53:55;3.00;3.00;0.00
73825;PMS5003;64145;55.060;73.168;2023-03-01T21:56:22;2.67;2.67;1.00
73825;PMS5003;64145;55.060;73.168;2023-03-01T21:58:52;4.00;3.00;0.00
73825;PMS5003;64145;55.060;73.168;2023-03-01T22:01:24;3.00;1.00;0.00
73825;PMS5003;64145;55.060;73.168;2023-03-01T22:03:51;3.00;2.75;0.00
73825;PMS5003;64145;55.060;73.168;2023-03-01T22:06:23;1.75;1.75;0.00
73825;PMS5003;64145;55.060;73.168;2023-03-01T22:08:59;3.00;3.00;0.00
73825;PMS5003;64145;55.060;73.168;2023-03-01T22:11:25;0.50;0.50;0.00
73825;PMS5003;64145;55.060;73.168;2023-03-01T22:13:53;0.00;0.00;0.00
73825;PMS5003;64145;55.060;73.168;2023-03-01T22:16:30;0.00;0.00;0.00
73825;PMS5003;64145;55.060;73.168;2023-03-01T22:18:56;0.00;0.00;0.00
73825;PMS5003;64145;55.060;73.168;2023-03-01T22:21:22;0.00;0.00;0.00
73825;PMS5003;64145;55.060;73.168;2023-03-01T22:23:49;0.00;0.00;0.00
73825;PMS5003;64145;55.060;73.168;2023-03-01T22:26:29;0.00;0.00;0.00
73825;PMS5003;64145;55.060;73.168;2023-03-01T22:28:56;0.00;0.00;0.00
73825;PMS5003;64145;55.060;73.168;2023-03-01T22:31:22;0.00;0.00;0.00
73825;PMS5003;64145;55.060;73.168;2023-03-01T22:33:48;0.00;0.00;0.00
73825;PMS5003;64145;55.060;73.168;2023-03-01T22:36:15;0.00;0.00;0.00
73825;PMS5003;64145;55.060;73.168;2023-03-01T22:38:46;0.00;0.00;0.00
73825;PMS5003;64145;55.060;73.168;2023-03-01T22:41:12;0.00;0.00;0.00
73825;PMS5003;64145;55.060;73.168;2023-03-01T22:43:37;0.00;0.00;0.00
73825;PMS5003;64145;55.060;73.168;2023-03-01T22:46:14;0.00;0.00;0.00
73825;PMS5003;64145;55.060;73.168;2023-03-01T22:48:51;0.00;0.00;0.00
73825;PMS5003;64145;55.060;73.168;2023-03-01T22:51:30;0.00;0.00;0.00
73825;PMS5003;64145;55.060;73.168;2023-03-01T22:54:06;0.00;0.00;0.00
73825;PMS5003;64145;55.060;73.168;2023-03-01T22:56:32;0.00;0.00;0.00
73825;PMS5003;64145;55.060;73.168;2023-03-01T22:58:59;0.00;0.00;0.00
73825;PMS5003;64145;55.060;73.168;2023-03-01T23:01:25;0.00;0.00;0.00
73825;PMS5003;64145;55.060;73.168;2023-03-01T23:03:56;0.00;0.00;0.00
73825;PMS5003;64145;55.060;73.168;2023-03-01T23:06:21;0.00;0.00;0.00
73825;PMS5003;64145;55.060;73.168;2023-03-01T23:08:48;0.00;0.00;0.00